createdAt,value
2023-03-20T00:00:53.625Z,14.97
2023-03-20T00:03:43.391Z,17.37
2023-03-20T00:06:34.565Z,16.63
2023-03-20T00:09:26.149Z,16.63
2023-03-20T00:12:19.115Z,18.63
2023-03-20T00:15:19.769Z,14.30
2023-03-20T00:18:17.057Z,16.60
2023-03-20T00:21:06.772Z,16.40
2023-03-20T00:23:58.922Z,19.27
2023-03-20T00:26:50.747Z,16.03
2023-03-20T00:29:40.201Z,15.47
2023-03-20T00:32:30.138Z,17.47
2023-03-20T00:35:22.264Z,16.83
2023-03-20T00:38:17.169Z,15.73
2023-03-20T00:41:23.513Z,17.23
2023-03-20T00:44:25.012Z,15.37
2023-03-20T00:47:20.982Z,18.43
2023-03-20T00:50:18.854Z,18.83
2023-03-20T00:53:11.485Z,17.80
2023-03-20T00:56:01.088Z,18.83
2023-03-20T00:58:52.480Z,18.37
2023-03-20T01:01:41.992Z,18.93
2023-03-20T01:04:37.801Z,18.53
2023-03-20T01:07:28.185Z,19.00
2023-03-20T01:10:18.125Z,14.73
2023-03-20T01:13:15.765Z,14.73
2023-03-20T01:16:08.665Z,17.00
2023-03-20T01:18:58.380Z,19.70
2023-03-20T01:21:48.188Z,21.07
2023-03-20T01:24:40.361Z,19.10
2023-03-20T01:27:30.424Z,17.80
2023-03-20T01:30:23.535Z,19.57
2023-03-20T01:33:18.147Z,17.13
2023-03-20T01:36:08.329Z,20.47
2023-03-20T01:39:00.085Z,18.93
2023-03-20T01:41:51.257Z,19.53
2023-03-20T01:44:41.378Z,18.17
2023-03-20T01:47:31.821Z,17.50
2023-03-20T01:50:28.739Z,19.60
2023-03-20T01:53:22.700Z,21.63
2023-03-20T01:56:14.356Z,20.07
2023-03-20T01:59:07.599Z,24.10
2023-03-20T02:01:58.198Z,20.57
2023-03-20T02:04:51.440Z,20.83
2023-03-20T02:07:43.109Z,19.03
2023-03-20T02:13:19.033Z,19.43
2023-03-20T02:16:11.683Z,21.87
2023-03-20T02:19:03.299Z,20.37
2023-03-20T02:22:26.710Z,20.63
2023-03-20T02:25:39.758Z,19.17
2023-03-20T02:28:59.530Z,18.57
2023-03-20T02:32:25.538Z,19.47
2023-03-20T02:35:54.627Z,20.37
2023-03-20T02:39:14.911Z,19.40
2023-03-20T02:42:13.799Z,18.87
2023-03-20T02:45:11.666Z,19.57
2023-03-20T02:48:15.017Z,19.20
2023-03-20T02:51:12.520Z,21.30
2023-03-20T02:54:09.470Z,19.53
2023-03-20T02:57:06.368Z,23.47
2023-03-20T03:00:01.419Z,19.57
2023-03-20T03:02:54.758Z,20.73
2023-03-20T03:05:50.761Z,19.77
2023-03-20T03:08:43.679Z,22.57
2023-03-20T03:11:36.186Z,20.97
2023-03-20T03:14:35.194Z,20.37
2023-03-20T03:17:28.200Z,20.43
2023-03-20T03:20:24.242Z,20.77
2023-03-20T03:23:22.920Z,20.30
2023-03-20T03:26:16.499Z,17.40
2023-03-20T03:29:12.081Z,19.33
2023-03-20T03:32:04.479Z,18.67
2023-03-20T03:34:54.036Z,18.77
2023-03-20T03:37:51.540Z,18.23
2023-03-20T03:40:47.808Z,17.43
2023-03-20T03:43:43.433Z,18.33
2023-03-20T03:46:44.075Z,20.33
2023-03-20T03:49:39.609Z,20.53
2023-03-20T03:52:33.482Z,18.47
2023-03-20T03:55:26.643Z,21.13
2023-03-20T03:58:20.933Z,19.60
2023-03-20T04:01:12.923Z,20.07
2023-03-20T04:04:05.260Z,23.10
2023-03-20T04:06:56.299Z,20.63
2023-03-20T04:09:45.768Z,21.27
2023-03-20T04:12:40.108Z,17.93
2023-03-20T04:15:29.601Z,21.67
2023-03-20T04:18:20.823Z,19.97
2023-03-20T04:21:11.847Z,18.97
2023-03-20T04:24:02.762Z,19.57
2023-03-20T04:26:53.205Z,18.93
2023-03-20T04:29:42.645Z,17.67
2023-03-20T04:32:32.812Z,19.90
2023-03-20T04:35:22.283Z,19.50
2023-03-20T04:38:12.146Z,19.53
2023-03-20T04:41:03.204Z,17.70
2023-03-20T04:43:52.622Z,19.93
2023-03-20T04:46:42.642Z,20.53
2023-03-20T04:49:32.131Z,21.73
2023-03-20T04:52:21.964Z,26.77
2023-03-20T04:55:11.731Z,20.43
2023-03-20T04:58:04.327Z,21.60
2023-03-20T05:00:53.902Z,20.27
2023-03-20T05:03:43.542Z,20.13
2023-03-20T05:06:34.271Z,22.80
2023-03-20T05:09:23.930Z,21.07
2023-03-20T05:12:13.722Z,21.30
2023-03-20T05:15:04.844Z,23.00
2023-03-20T05:17:55.298Z,19.00
2023-03-20T05:20:44.760Z,18.00
2023-03-20T05:23:34.802Z,18.07
2023-03-20T05:26:24.200Z,18.63
2023-03-20T05:29:14.343Z,16.40
2023-03-20T05:32:05.376Z,17.60
2023-03-20T05:34:55.040Z,17.57
2023-03-20T05:37:46.580Z,19.27
2023-03-20T05:40:36.027Z,18.90
2023-03-20T05:43:25.801Z,19.07
2023-03-20T05:46:15.339Z,16.70
2023-03-20T05:49:06.937Z,18.97
2023-03-20T05:51:56.406Z,18.27
2023-03-20T05:54:46.089Z,18.87
2023-03-20T05:57:35.718Z,21.93
2023-03-20T06:00:26.256Z,24.07
2023-03-20T06:03:15.879Z,26.03
2023-03-20T06:06:07.611Z,26.10
2023-03-20T06:08:57.329Z,27.03
2023-03-20T06:11:46.765Z,22.07
2023-03-20T06:14:36.317Z,23.97
2023-03-20T06:17:25.680Z,22.07
2023-03-20T06:20:15.882Z,17.93
2023-03-20T06:23:07.074Z,15.87
2023-03-20T06:25:56.566Z,21.00
2023-03-20T06:28:46.464Z,19.47
2023-03-20T06:31:35.804Z,20.87
2023-03-20T06:34:25.249Z,22.73
2023-03-20T06:37:14.486Z,23.20
2023-03-20T06:40:05.800Z,22.73
2023-03-20T06:42:55.408Z,23.63
2023-03-20T06:45:44.851Z,21.13
2023-03-20T06:48:34.531Z,17.97
2023-03-20T06:51:24.096Z,21.23
2023-03-20T06:54:13.375Z,22.20
2023-03-20T06:57:04.432Z,25.47
2023-03-20T06:59:54.027Z,25.17
2023-03-20T07:02:43.521Z,21.97
2023-03-20T07:05:32.865Z,24.40
2023-03-20T07:08:22.863Z,22.10
2023-03-20T07:11:12.993Z,23.77
2023-03-20T07:14:04.241Z,22.57
2023-03-20T07:16:53.952Z,21.00
2023-03-20T07:19:43.888Z,24.97
2023-03-20T07:22:33.519Z,22.83
2023-03-20T07:25:35.488Z,21.57
2023-03-20T07:28:31.261Z,21.17
2023-03-20T07:31:24.811Z,25.80
2023-03-20T07:34:15.173Z,24.17
2023-03-20T07:37:05.466Z,21.50
2023-03-20T07:39:55.203Z,24.03
2023-03-20T07:42:45.130Z,25.17
2023-03-20T07:45:35.014Z,25.77
2023-03-20T07:48:26.380Z,22.50
2023-03-20T07:51:15.877Z,23.63
2023-03-20T07:54:05.803Z,28.60
2023-03-20T07:56:55.742Z,20.70
2023-03-20T07:59:45.647Z,21.87
2023-03-20T08:02:35.426Z,33.10
2023-03-20T08:05:26.864Z,30.47
2023-03-20T08:08:16.519Z,50.40
2023-03-20T08:11:06.684Z,33.50
2023-03-20T08:13:56.238Z,36.90
2023-03-20T08:16:45.769Z,25.80
2023-03-20T08:19:35.386Z,25.50
2023-03-20T08:22:26.549Z,27.77
2023-03-20T08:25:16.109Z,34.80
2023-03-20T08:28:06.701Z,25.80
2023-03-20T08:30:56.762Z,30.83
2023-03-20T08:33:47.283Z,26.23
2023-03-20T08:36:36.861Z,24.00
2023-03-20T08:39:27.843Z,26.37
2023-03-20T08:42:17.876Z,25.83
2023-03-20T08:45:08.900Z,24.63
2023-03-20T08:47:58.390Z,25.90
2023-03-20T08:50:48.307Z,22.87
2023-03-20T08:53:38.189Z,53.80
2023-03-20T08:56:29.325Z,32.43
2023-03-20T08:59:19.674Z,105.70
2023-03-20T09:02:11.780Z,50.23
2023-03-20T09:05:01.693Z,26.27
2023-03-20T09:07:52.034Z,24.00
2023-03-20T09:10:41.450Z,23.17
2023-03-20T09:13:32.385Z,23.03
2023-03-20T09:16:21.715Z,22.30
2023-03-20T09:19:11.789Z,19.70
2023-03-20T09:22:02.540Z,19.57
2023-03-20T09:24:52.099Z,21.30
2023-03-20T09:27:41.979Z,20.43
2023-03-20T09:30:32.985Z,19.30
2023-03-20T09:33:22.406Z,20.87
2023-03-20T09:36:12.981Z,22.33
2023-03-20T09:39:02.894Z,19.93
2023-03-20T09:41:57.770Z,18.77
2023-03-20T09:44:57.689Z,66.57
2023-03-20T09:48:00.169Z,41.37
2023-03-20T09:50:57.695Z,20.23
2023-03-20T09:53:52.507Z,28.43
2023-03-20T09:56:42.359Z,23.93
2023-03-20T09:59:34.778Z,22.43
2023-03-20T10:02:41.458Z,20.10
2023-03-20T10:05:36.394Z,18.07
2023-03-20T10:08:30.519Z,28.07
2023-03-20T10:11:46.277Z,24.07
2023-03-20T10:14:47.331Z,18.93
2023-03-20T10:17:51.488Z,21.53
2023-03-20T10:20:51.049Z,48.50
2023-03-20T10:23:46.962Z,44.63
2023-03-20T10:26:37.677Z,35.90
2023-03-20T10:29:40.476Z,18.93
2023-03-20T10:32:37.361Z,25.47
2023-03-20T10:35:34.167Z,20.80
2023-03-20T10:38:34.728Z,20.70
2023-03-20T10:41:28.533Z,19.57
2023-03-20T10:44:26.024Z,20.80
2023-03-20T10:47:20.679Z,20.63
2023-03-20T10:50:17.571Z,21.43
2023-03-20T10:53:09.898Z,23.40
2023-03-20T10:56:05.048Z,23.00
2023-03-20T10:59:01.701Z,23.50
2023-03-20T11:01:51.525Z,21.67
2023-03-20T11:04:41.452Z,20.97
2023-03-20T11:07:35.983Z,20.63
2023-03-20T11:10:29.341Z,21.03
2023-03-20T11:13:29.740Z,21.07
2023-03-20T11:16:23.327Z,19.97
2023-03-20T11:19:15.010Z,18.77
2023-03-20T11:22:10.363Z,20.30
2023-03-20T11:25:02.902Z,23.83
2023-03-20T11:27:52.763Z,22.57
2023-03-20T11:31:03.281Z,20.73
2023-03-20T11:33:55.814Z,19.90
2023-03-20T11:37:08.637Z,20.77
2023-03-20T11:40:01.129Z,29.77
2023-03-20T11:43:05.679Z,26.30
2023-03-20T11:46:01.266Z,16.97
2023-03-20T11:49:05.646Z,19.47
2023-03-20T11:51:55.437Z,36.93
2023-03-20T11:54:51.898Z,18.43
2023-03-20T11:57:42.861Z,17.37
2023-03-20T12:00:38.792Z,17.70
2023-03-20T12:03:52.643Z,18.57
2023-03-20T12:06:48.374Z,20.87
2023-03-20T12:09:44.284Z,17.43
2023-03-20T12:12:42.488Z,16.40
2023-03-20T12:15:35.831Z,16.27
2023-03-20T12:18:31.973Z,17.97
2023-03-20T12:21:28.841Z,15.80
2023-03-20T12:24:29.582Z,19.17
2023-03-20T12:27:26.384Z,17.50
2023-03-20T12:30:20.246Z,18.87
2023-03-20T12:33:14.235Z,18.00
2023-03-20T12:36:06.691Z,18.13
2023-03-20T12:38:57.909Z,20.13
2023-03-20T12:42:07.676Z,16.10
2023-03-20T12:45:02.464Z,19.10
2023-03-20T12:48:25.069Z,21.00
2023-03-20T12:51:23.206Z,24.17
2023-03-20T12:54:28.189Z,22.07
2023-03-20T12:57:26.805Z,20.93
2023-03-20T13:00:24.178Z,20.53
2023-03-20T13:03:37.844Z,19.83
2023-03-20T13:06:38.632Z,21.10
2023-03-20T13:09:48.521Z,21.03
2023-03-20T13:12:54.375Z,21.07
2023-03-20T13:15:59.215Z,22.17
2023-03-20T13:18:59.223Z,19.70
2023-03-20T13:21:56.981Z,23.03
2023-03-20T13:24:51.527Z,22.83
2023-03-20T13:27:47.525Z,17.07
2023-03-20T13:30:45.002Z,19.63
2023-03-20T13:33:44.865Z,18.07
2023-03-20T13:36:50.764Z,17.63
2023-03-20T13:39:44.107Z,18.83
2023-03-20T13:42:39.596Z,18.53
2023-03-20T13:45:37.694Z,19.70
2023-03-20T13:48:32.271Z,18.33
2023-03-20T13:51:29.011Z,19.93
2023-03-20T13:54:36.533Z,18.17
2023-03-20T13:57:43.113Z,19.63
2023-03-20T14:00:39.527Z,17.27
2023-03-20T14:03:33.953Z,16.60
2023-03-20T14:06:49.859Z,19.07
2023-03-20T14:09:39.821Z,19.73
2023-03-20T14:12:35.228Z,20.67
2023-03-20T14:15:30.010Z,20.87
2023-03-20T14:18:20.606Z,21.60
2023-03-20T14:21:14.632Z,19.47
2023-03-20T14:24:06.909Z,20.20
2023-03-20T14:27:00.100Z,26.40
2023-03-20T14:29:49.682Z,22.00
2023-03-20T14:32:55.061Z,21.87
2023-03-20T14:35:47.952Z,24.37
2023-03-20T14:38:41.821Z,24.27
2023-03-20T14:41:35.987Z,23.70
2023-03-20T14:44:38.366Z,26.07
2023-03-20T14:47:35.899Z,23.57
2023-03-20T14:50:33.162Z,24.13
2023-03-20T14:53:24.044Z,26.93
2023-03-20T14:56:17.294Z,24.30
2023-03-20T14:59:08.332Z,25.50
2023-03-20T15:02:01.327Z,28.90
2023-03-20T15:04:51.298Z,26.47
2023-03-20T15:07:44.035Z,27.80
2023-03-20T15:10:37.637Z,27.30
2023-03-20T15:13:27.909Z,28.47
2023-03-20T15:16:18.597Z,28.70
2023-03-20T15:19:19.425Z,27.30
2023-03-20T15:22:18.049Z,28.30
2023-03-20T15:25:17.937Z,29.67
2023-03-20T15:28:08.452Z,27.93
2023-03-20T15:31:00.534Z,29.17
2023-03-20T15:33:51.018Z,29.23
2023-03-20T15:36:42.591Z,26.83
2023-03-20T15:39:43.429Z,29.37
2023-03-20T15:42:34.479Z,28.40
2023-03-20T15:45:28.077Z,24.67
2023-03-20T15:48:20.131Z,29.47
2023-03-20T15:51:13.097Z,30.13
2023-03-20T15:54:08.536Z,39.20
2023-03-20T15:57:02.250Z,32.90
2023-03-20T15:59:53.842Z,31.30
2023-03-20T16:02:45.213Z,32.43
2023-03-20T16:05:37.902Z,27.47
2023-03-20T16:08:29.805Z,25.17
2023-03-20T16:11:20.400Z,31.50
2023-03-20T16:14:14.132Z,30.83
2023-03-20T16:17:06.892Z,32.33
2023-03-20T16:19:56.583Z,28.63
2023-03-20T16:22:47.330Z,30.30
2023-03-20T16:25:37.711Z,34.83
2023-03-20T16:28:29.078Z,34.33
2023-03-20T16:31:23.360Z,34.77
2023-03-20T16:34:20.249Z,33.93
2023-03-20T16:37:23.720Z,34.73
2023-03-20T16:40:18.500Z,32.37
2023-03-20T16:43:13.700Z,35.87
2023-03-20T16:46:08.403Z,33.53
2023-03-20T16:48:59.791Z,35.30
2023-03-20T16:51:51.220Z,33.50
2023-03-20T16:54:41.398Z,35.07
2023-03-20T16:57:37.915Z,31.63
2023-03-20T17:00:30.572Z,36.17
2023-03-20T17:03:26.778Z,33.90
2023-03-20T17:06:36.825Z,33.83
2023-03-20T17:09:30.908Z,36.53
2023-03-20T17:12:20.379Z,31.53
2023-03-20T17:15:11.786Z,32.50
2023-03-20T17:18:01.637Z,33.13
2023-03-20T17:20:51.700Z,31.33
2023-03-20T17:23:41.989Z,31.47
2023-03-20T17:26:33.204Z,30.77
2023-03-20T17:29:23.178Z,33.27
2023-03-20T17:32:13.996Z,30.70
2023-03-20T17:35:04.036Z,34.07
2023-03-20T17:37:53.952Z,30.23
2023-03-20T17:40:44.603Z,35.63
2023-03-20T17:43:36.162Z,34.27
2023-03-20T17:46:31.352Z,37.00
2023-03-20T17:49:28.024Z,32.43
2023-03-20T17:52:19.434Z,32.93
2023-03-20T17:55:11.506Z,35.70
2023-03-20T17:58:02.079Z,37.40
2023-03-20T18:00:55.473Z,36.10
2023-03-20T18:03:47.865Z,33.63
2023-03-20T18:06:39.125Z,35.80
2023-03-20T18:09:30.950Z,37.27
2023-03-20T18:12:22.622Z,34.40
2023-03-20T18:15:14.641Z,37.40
2023-03-20T18:18:08.167Z,40.23
2023-03-20T18:21:00.783Z,31.63
2023-03-20T18:23:51.751Z,32.37
2023-03-20T18:26:45.672Z,35.77
2023-03-20T18:29:36.449Z,33.20
2023-03-20T18:32:29.415Z,33.83
2023-03-20T18:35:22.026Z,38.10
2023-03-20T18:38:15.372Z,36.83
2023-03-20T18:41:06.848Z,36.17
2023-03-20T18:43:58.109Z,36.17
2023-03-20T18:46:49.418Z,33.07
2023-03-20T18:49:41.181Z,31.20
2023-03-20T18:52:38.281Z,32.90
2023-03-20T18:55:31.031Z,30.83
2023-03-20T18:58:25.771Z,36.53
2023-03-20T19:01:17.115Z,31.60
2023-03-20T19:04:11.248Z,30.10
2023-03-20T19:07:03.383Z,29.50
2023-03-20T19:09:56.826Z,34.90
2023-03-20T19:12:48.971Z,33.00
2023-03-20T19:15:41.170Z,31.87
2023-03-20T19:18:33.220Z,37.37
2023-03-20T19:21:27.131Z,42.43
2023-03-20T19:24:22.415Z,37.77
2023-03-20T19:27:18.942Z,42.87
2023-03-20T19:30:20.146Z,42.10
2023-03-20T19:33:12.277Z,43.17
2023-03-20T19:36:04.341Z,50.93
2023-03-20T19:38:55.725Z,48.70
2023-03-20T19:41:48.678Z,44.63
2023-03-20T19:44:41.942Z,43.60
2023-03-20T19:47:38.094Z,53.37
2023-03-20T19:50:32.828Z,60.23
2023-03-20T19:53:30.538Z,60.93
2023-03-20T19:56:23.890Z,51.23
2023-03-20T19:59:16.931Z,51.83
2023-03-20T20:02:13.046Z,43.47
2023-03-20T20:05:06.659Z,34.73
2023-03-20T20:11:13.566Z,39.20
2023-03-20T20:14:09.368Z,33.43
2023-03-20T20:17:01.650Z,30.40
2023-03-20T20:19:58.084Z,36.47
2023-03-20T20:22:50.989Z,32.67
2023-03-20T20:25:43.304Z,31.57
2023-03-20T20:28:34.499Z,35.90
2023-03-20T20:31:31.557Z,32.33
2023-03-20T20:40:51.416Z,29.27
2023-03-20T20:44:14.089Z,25.87
2023-03-20T20:46:53.857Z,28.67
2023-03-20T20:49:51.248Z,34.20
2023-03-20T20:52:48.107Z,35.23
2023-03-20T20:55:40.772Z,37.10
2023-03-20T20:58:37.103Z,31.67
2023-03-20T21:01:27.656Z,35.13
2023-03-20T21:04:19.278Z,36.90
2023-03-20T21:07:11.946Z,35.37
2023-03-20T21:10:05.360Z,30.67
2023-03-20T21:12:59.494Z,32.37
2023-03-20T21:15:58.112Z,35.47
2023-03-20T21:18:47.966Z,37.80
2023-03-20T21:21:39.762Z,34.57
2023-03-20T21:24:33.040Z,37.20
2023-03-20T21:27:25.919Z,36.40
2023-03-20T21:30:17.225Z,33.00
2023-03-20T21:33:06.931Z,34.23
2023-03-20T21:35:56.754Z,39.53
2023-03-20T21:41:56.022Z,47.63
2023-03-20T21:45:34.557Z,51.73
2023-03-20T21:58:09.964Z,33.70
2023-03-20T22:01:21.770Z,28.80
2023-03-20T22:07:42.076Z,29.90
2023-03-20T22:29:52.444Z,34.33
2023-03-20T22:39:36.613Z,32.63
2023-03-20T22:45:05.045Z,28.30
2023-03-20T22:47:56.141Z,34.27
2023-03-20T22:51:52.196Z,34.77
2023-03-20T22:54:47.231Z,33.27
2023-03-20T22:57:45.711Z,36.67
2023-03-20T23:00:53.741Z,38.33
2023-03-20T23:03:44.508Z,33.63
2023-03-20T23:06:34.434Z,30.37
2023-03-20T23:09:23.747Z,32.97
2023-03-20T23:12:13.077Z,27.77
2023-03-20T23:15:02.668Z,40.40
2023-03-20T23:17:52.100Z,38.60
2023-03-20T23:20:43.786Z,34.13
2023-03-20T23:23:34.007Z,35.43
2023-03-20T23:26:23.565Z,33.67
2023-03-20T23:29:12.909Z,33.83
2023-03-20T23:32:02.456Z,32.20
2023-03-20T23:34:52.374Z,37.90
2023-03-20T23:37:43.352Z,30.07
2023-03-20T23:40:34.331Z,40.43
2023-03-20T23:43:23.877Z,30.70
2023-03-20T23:46:13.545Z,28.97
2023-03-20T23:49:04.269Z,25.80
2023-03-20T23:51:53.575Z,28.67
2023-03-20T23:54:44.894Z,31.53
2023-03-20T23:57:34.234Z,36.27
